sensor_id;sensor_type;location;lat;lon;timestamp;P1;durP1;ratioP1;P2;durP2;ratioP2
11839;SDS011;5979;50.800;4.904;2023-06-22T00:00:49;8.77;;;8.07;;
11839;SDS011;5979;50.800;4.904;2023-06-22T00:03:15;8.63;;;7.72;;
11839;SDS011;5979;50.800;4.904;2023-06-22T00:05:44;9.23;;;8.43;;
11839;SDS011;5979;50.800;4.904;2023-06-22T00:08:13;8.13;;;7.47;;
11839;SDS011;5979;50.800;4.904;2023-06-22T00:10:39;8.20;;;7.60;;
11839;SDS011;5979;50.800;4.904;2023-06-22T00:13:06;8.15;;;6.97;;
11839;SDS011;5979;50.800;4.904;2023-06-22T00:15:33;8.05;;;7.25;;
11839;SDS011;5979;50.800;4.904;2023-06-22T00:17:59;7.82;;;7.30;;
11839;SDS011;5979;50.800;4.904;2023-06-22T00:20:25;7.22;;;6.60;;
11839;SDS011;5979;50.800;4.904;2023-06-22T00:22:55;7.65;;;7.03;;
11839;SDS011;5979;50.800;4.904;2023-06-22T00:25:21;6.47;;;5.88;;
11839;SDS011;5979;50.800;4.904;2023-06-22T00:27:47;7.15;;;6.55;;
11839;SDS011;5979;50.800;4.904;2023-06-22T00:30:13;6.72;;;6.22;;
11839;SDS011;5979;50.800;4.904;2023-06-22T00:32:40;8.13;;;7.28;;
11839;SDS011;5979;50.800;4.904;2023-06-22T00:35:06;8.25;;;7.60;;
11839;SDS011;5979;50.800;4.904;2023-06-22T00:37:33;9.27;;;8.20;;
11839;SDS011;5979;50.800;4.904;2023-06-22T00:40:00;8.88;;;8.18;;
11839;SDS011;5979;50.800;4.904;2023-06-22T00:42:27;7.88;;;7.18;;
11839;SDS011;5979;50.800;4.904;2023-06-22T00:44:52;8.15;;;7.35;;
11839;SDS011;5979;50.800;4.904;2023-06-22T00:47:18;7.78;;;7.18;;
11839;SDS011;5979;50.800;4.904;2023-06-22T00:49:44;5.63;;;5.18;;
11839;SDS011;5979;50.800;4.904;2023-06-22T00:52:11;5.85;;;5.45;;
11839;SDS011;5979;50.800;4.904;2023-06-22T00:54:48;7.00;;;6.45;;
11839;SDS011;5979;50.800;4.904;2023-06-22T00:57:15;7.68;;;6.82;;
11839;SDS011;5979;50.800;4.904;2023-06-22T00:59:42;6.65;;;6.15;;
11839;SDS011;5979;50.800;4.904;2023-06-22T01:02:12;6.18;;;5.70;;
11839;SDS011;5979;50.800;4.904;2023-06-22T01:04:38;6.68;;;6.25;;
11839;SDS011;5979;50.800;4.904;2023-06-22T01:07:12;9.07;;;8.15;;
11839;SDS011;5979;50.800;4.904;2023-06-22T01:09:56;8.25;;;7.45;;
11839;SDS011;5979;50.800;4.904;2023-06-22T01:12:43;8.10;;;7.50;;
11839;SDS011;5979;50.800;4.904;2023-06-22T01:15:33;8.38;;;7.55;;
11839;SDS011;5979;50.800;4.904;2023-06-22T01:18:11;9.02;;;8.13;;
11839;SDS011;5979;50.800;4.904;2023-06-22T01:20:39;9.10;;;8.13;;
11839;SDS011;5979;50.800;4.904;2023-06-22T01:23:09;10.30;;;7.72;;
11839;SDS011;5979;50.800;4.904;2023-06-22T01:25:45;8.18;;;7.38;;
11839;SDS011;5979;50.800;4.904;2023-06-22T01:31:08;6.53;;;6.03;;
11839;SDS011;5979;50.800;4.904;2023-06-22T01:33:37;5.80;;;5.30;;
11839;SDS011;5979;50.800;4.904;2023-06-22T01:36:05;8.18;;;7.38;;
11839;SDS011;5979;50.800;4.904;2023-06-22T01:38:32;6.65;;;6.15;;
11839;SDS011;5979;50.800;4.904;2023-06-22T01:40:59;7.30;;;6.70;;
11839;SDS011;5979;50.800;4.904;2023-06-22T01:43:26;8.15;;;7.40;;
11839;SDS011;5979;50.800;4.904;2023-06-22T01:45:53;8.43;;;7.30;;
11839;SDS011;5979;50.800;4.904;2023-06-22T01:48:20;8.50;;;7.75;;
11839;SDS011;5979;50.800;4.904;2023-06-22T01:50:47;7.82;;;7.07;;
11839;SDS011;5979;50.800;4.904;2023-06-22T01:53:13;6.70;;;6.20;;
11839;SDS011;5979;50.800;4.904;2023-06-22T01:55:39;7.80;;;7.13;;
11839;SDS011;5979;50.800;4.904;2023-06-22T01:58:04;7.20;;;6.57;;
11839;SDS011;5979;50.800;4.904;2023-06-22T02:00:31;9.18;;;7.30;;
11839;SDS011;5979;50.800;4.904;2023-06-22T02:03:00;7.57;;;6.88;;
11839;SDS011;5979;50.800;4.904;2023-06-22T02:05:34;7.80;;;6.20;;
11839;SDS011;5979;50.800;4.904;2023-06-22T02:10:34;7.38;;;5.90;;
11839;SDS011;5979;50.800;4.904;2023-06-22T02:13:01;6.82;;;6.22;;
11839;SDS011;5979;50.800;4.904;2023-06-22T02:15:29;8.38;;;6.68;;
11839;SDS011;5979;50.800;4.904;2023-06-22T02:17:56;6.55;;;5.95;;
11839;SDS011;5979;50.800;4.904;2023-06-22T02:20:21;6.25;;;5.85;;
11839;SDS011;5979;50.800;4.904;2023-06-22T02:22:49;5.50;;;5.00;;
11839;SDS011;5979;50.800;4.904;2023-06-22T02:25:15;7.65;;;6.88;;
11839;SDS011;5979;50.800;4.904;2023-06-22T02:27:40;6.53;;;5.93;;
11839;SDS011;5979;50.800;4.904;2023-06-22T02:30:09;6.72;;;6.18;;
11839;SDS011;5979;50.800;4.904;2023-06-22T02:32:35;6.97;;;6.38;;
11839;SDS011;5979;50.800;4.904;2023-06-22T02:35:01;5.65;;;5.07;;
11839;SDS011;5979;50.800;4.904;2023-06-22T02:37:31;5.95;;;5.35;;
11839;SDS011;5979;50.800;4.904;2023-06-22T02:39:57;6.43;;;5.97;;
11839;SDS011;5979;50.800;4.904;2023-06-22T02:42:23;7.57;;;6.88;;
11839;SDS011;5979;50.800;4.904;2023-06-22T02:44:48;7.18;;;6.15;;
11839;SDS011;5979;50.800;4.904;2023-06-22T02:47:15;6.15;;;5.70;;
11839;SDS011;5979;50.800;4.904;2023-06-22T02:49:40;6.80;;;6.30;;
11839;SDS011;5979;50.800;4.904;2023-06-22T02:52:07;7.65;;;6.93;;
11839;SDS011;5979;50.800;4.904;2023-06-22T02:54:32;7.47;;;6.78;;
11839;SDS011;5979;50.800;4.904;2023-06-22T02:56:58;6.80;;;6.15;;
11839;SDS011;5979;50.800;4.904;2023-06-22T02:59:28;8.38;;;6.75;;
11839;SDS011;5979;50.800;4.904;2023-06-22T03:01:53;7.85;;;7.22;;
11839;SDS011;5979;50.800;4.904;2023-06-22T03:04:19;8.05;;;7.35;;
11839;SDS011;5979;50.800;4.904;2023-06-22T03:06:44;7.55;;;6.93;;
11839;SDS011;5979;50.800;4.904;2023-06-22T03:09:15;7.93;;;7.13;;
11839;SDS011;5979;50.800;4.904;2023-06-22T03:11:41;7.80;;;7.03;;
11839;SDS011;5979;50.800;4.904;2023-06-22T03:14:07;10.25;;;6.55;;
11839;SDS011;5979;50.800;4.904;2023-06-22T03:16:33;7.10;;;6.50;;
11839;SDS011;5979;50.800;4.904;2023-06-22T03:18:58;7.20;;;6.50;;
11839;SDS011;5979;50.800;4.904;2023-06-22T03:21:27;6.53;;;5.93;;
11839;SDS011;5979;50.800;4.904;2023-06-22T03:23:53;6.70;;;6.10;;
11839;SDS011;5979;50.800;4.904;2023-06-22T03:26:19;7.15;;;5.65;;
11839;SDS011;5979;50.800;4.904;2023-06-22T03:28:45;7.38;;;6.55;;
11839;SDS011;5979;50.800;4.904;2023-06-22T03:31:11;7.35;;;5.90;;
11839;SDS011;5979;50.800;4.904;2023-06-22T03:33:37;6.32;;;5.82;;
11839;SDS011;5979;50.800;4.904;2023-06-22T03:36:03;6.10;;;5.55;;
11839;SDS011;5979;50.800;4.904;2023-06-22T03:38:29;6.57;;;6.03;;
11839;SDS011;5979;50.800;4.904;2023-06-22T03:40:54;6.13;;;5.63;;
11839;SDS011;5979;50.800;4.904;2023-06-22T03:43:20;6.00;;;5.28;;
11839;SDS011;5979;50.800;4.904;2023-06-22T03:45:46;6.38;;;5.88;;
11839;SDS011;5979;50.800;4.904;2023-06-22T03:48:12;7.53;;;6.70;;
11839;SDS011;5979;50.800;4.904;2023-06-22T03:50:37;6.10;;;5.70;;
11839;SDS011;5979;50.800;4.904;2023-06-22T03:53:03;7.60;;;6.15;;
11839;SDS011;5979;50.800;4.904;2023-06-22T03:55:28;6.32;;;5.82;;
11839;SDS011;5979;50.800;4.904;2023-06-22T03:57:55;7.35;;;6.65;;
11839;SDS011;5979;50.800;4.904;2023-06-22T04:00:22;7.32;;;6.65;;
11839;SDS011;5979;50.800;4.904;2023-06-22T04:02:48;8.32;;;7.53;;
11839;SDS011;5979;50.800;4.904;2023-06-22T04:05:14;7.65;;;7.05;;
11839;SDS011;5979;50.800;4.904;2023-06-22T04:07:39;7.82;;;7.22;;
11839;SDS011;5979;50.800;4.904;2023-06-22T04:10:06;7.63;;;6.95;;
11839;SDS011;5979;50.800;4.904;2023-06-22T04:12:32;8.65;;;6.97;;
11839;SDS011;5979;50.800;4.904;2023-06-22T04:14:57;10.27;;;7.15;;
11839;SDS011;5979;50.800;4.904;2023-06-22T04:17:23;7.68;;;6.70;;
11839;SDS011;5979;50.800;4.904;2023-06-22T04:19:50;8.25;;;7.43;;
11839;SDS011;5979;50.800;4.904;2023-06-22T04:22:16;8.10;;;7.47;;
11839;SDS011;5979;50.800;4.904;2023-06-22T04:24:42;8.52;;;7.75;;
11839;SDS011;5979;50.800;4.904;2023-06-22T04:27:07;8.75;;;7.88;;
11839;SDS011;5979;50.800;4.904;2023-06-22T04:29:33;8.15;;;7.30;;
11839;SDS011;5979;50.800;4.904;2023-06-22T04:31:59;9.20;;;8.27;;
11839;SDS011;5979;50.800;4.904;2023-06-22T04:34:28;10.55;;;8.00;;
11839;SDS011;5979;50.800;4.904;2023-06-22T04:36:54;8.07;;;7.38;;
11839;SDS011;5979;50.800;4.904;2023-06-22T04:39:20;10.93;;;9.23;;
11839;SDS011;5979;50.800;4.904;2023-06-22T04:41:46;10.77;;;9.57;;
11839;SDS011;5979;50.800;4.904;2023-06-22T04:44:16;11.05;;;9.15;;
11839;SDS011;5979;50.800;4.904;2023-06-22T04:46:52;8.05;;;7.35;;
11839;SDS011;5979;50.800;4.904;2023-06-22T04:49:25;10.65;;;9.65;;
11839;SDS011;5979;50.800;4.904;2023-06-22T04:52:05;10.90;;;9.90;;
11839;SDS011;5979;50.800;4.904;2023-06-22T04:54:32;10.02;;;9.02;;
11839;SDS011;5979;50.800;4.904;2023-06-22T04:57:02;10.73;;;9.50;;
11839;SDS011;5979;50.800;4.904;2023-06-22T04:59:29;10.32;;;8.80;;
11839;SDS011;5979;50.800;4.904;2023-06-22T05:04:22;9.20;;;8.38;;
11839;SDS011;5979;50.800;4.904;2023-06-22T05:06:48;10.57;;;9.57;;
11839;SDS011;5979;50.800;4.904;2023-06-22T05:09:15;11.77;;;9.45;;
11839;SDS011;5979;50.800;4.904;2023-06-22T05:11:42;10.35;;;9.13;;
11839;SDS011;5979;50.800;4.904;2023-06-22T05:14:08;11.30;;;9.90;;
11839;SDS011;5979;50.800;4.904;2023-06-22T05:16:34;10.18;;;9.27;;
11839;SDS011;5979;50.800;4.904;2023-06-22T05:18:59;10.45;;;9.48;;
11839;SDS011;5979;50.800;4.904;2023-06-22T05:21:28;10.98;;;9.88;;
11839;SDS011;5979;50.800;4.904;2023-06-22T05:23:55;11.55;;;10.48;;
11839;SDS011;5979;50.800;4.904;2023-06-22T05:26:25;11.10;;;10.10;;
11839;SDS011;5979;50.800;4.904;2023-06-22T05:28:51;11.27;;;10.23;;
11839;SDS011;5979;50.800;4.904;2023-06-22T05:31:18;12.05;;;10.95;;
11839;SDS011;5979;50.800;4.904;2023-06-22T05:33:45;12.23;;;11.10;;
11839;SDS011;5979;50.800;4.904;2023-06-22T05:36:11;11.85;;;10.70;;
11839;SDS011;5979;50.800;4.904;2023-06-22T05:38:38;12.68;;;11.48;;
11839;SDS011;5979;50.800;4.904;2023-06-22T05:41:04;9.38;;;8.63;;
11839;SDS011;5979;50.800;4.904;2023-06-22T05:43:30;12.63;;;11.43;;
11839;SDS011;5979;50.800;4.904;2023-06-22T05:45:56;11.45;;;10.35;;
11839;SDS011;5979;50.800;4.904;2023-06-22T05:48:22;10.73;;;9.80;;
11839;SDS011;5979;50.800;4.904;2023-06-22T05:50:48;11.52;;;10.40;;
11839;SDS011;5979;50.800;4.904;2023-06-22T05:53:14;14.07;;;12.65;;
11839;SDS011;5979;50.800;4.904;2023-06-22T05:55:39;14.05;;;12.68;;
11839;SDS011;5979;50.800;4.904;2023-06-22T05:58:05;12.70;;;11.50;;
11839;SDS011;5979;50.800;4.904;2023-06-22T06:00:31;11.18;;;10.25;;
11839;SDS011;5979;50.800;4.904;2023-06-22T06:02:57;14.27;;;12.57;;
11839;SDS011;5979;50.800;4.904;2023-06-22T06:05:28;13.38;;;12.07;;
11839;SDS011;5979;50.800;4.904;2023-06-22T06:07:58;14.30;;;12.95;;
11839;SDS011;5979;50.800;4.904;2023-06-22T06:10:30;14.32;;;11.75;;
11839;SDS011;5979;50.800;4.904;2023-06-22T06:12:56;14.73;;;13.32;;
11839;SDS011;5979;50.800;4.904;2023-06-22T06:15:22;13.52;;;12.10;;
11839;SDS011;5979;50.800;4.904;2023-06-22T06:17:52;13.88;;;12.45;;
11839;SDS011;5979;50.800;4.904;2023-06-22T06:20:18;15.32;;;13.82;;
11839;SDS011;5979;50.800;4.904;2023-06-22T06:22:45;13.18;;;12.02;;
11839;SDS011;5979;50.800;4.904;2023-06-22T06:25:11;15.52;;;13.98;;
11839;SDS011;5979;50.800;4.904;2023-06-22T06:27:41;14.57;;;13.05;;
11839;SDS011;5979;50.800;4.904;2023-06-22T06:30:08;13.45;;;11.43;;
11839;SDS011;5979;50.800;4.904;2023-06-22T06:32:35;14.65;;;13.25;;
11839;SDS011;5979;50.800;4.904;2023-06-22T06:35:01;15.20;;;13.63;;
11839;SDS011;5979;50.800;4.904;2023-06-22T06:37:26;16.90;;;14.40;;
11839;SDS011;5979;50.800;4.904;2023-06-22T06:39:53;15.25;;;13.75;;
11839;SDS011;5979;50.800;4.904;2023-06-22T06:42:18;14.98;;;13.52;;
11839;SDS011;5979;50.800;4.904;2023-06-22T06:44:44;13.48;;;12.00;;
11839;SDS011;5979;50.800;4.904;2023-06-22T06:47:10;18.30;;;14.45;;
11839;SDS011;5979;50.800;4.904;2023-06-22T06:49:36;17.02;;;15.05;;
11839;SDS011;5979;50.800;4.904;2023-06-22T06:52:01;15.18;;;13.60;;
11839;SDS011;5979;50.800;4.904;2023-06-22T06:54:27;14.73;;;13.13;;
11839;SDS011;5979;50.800;4.904;2023-06-22T06:56:53;16.02;;;14.43;;
11839;SDS011;5979;50.800;4.904;2023-06-22T06:59:18;15.50;;;13.98;;
11839;SDS011;5979;50.800;4.904;2023-06-22T07:01:44;16.85;;;15.25;;
11839;SDS011;5979;50.800;4.904;2023-06-22T07:04:10;15.52;;;14.07;;
11839;SDS011;5979;50.800;4.904;2023-06-22T07:06:36;14.05;;;12.65;;
11839;SDS011;5979;50.800;4.904;2023-06-22T07:09:02;15.98;;;13.07;;
11839;SDS011;5979;50.800;4.904;2023-06-22T07:11:28;13.38;;;11.90;;
11839;SDS011;5979;50.800;4.904;2023-06-22T07:13:54;13.95;;;12.27;;
11839;SDS011;5979;50.800;4.904;2023-06-22T07:16:20;13.25;;;11.93;;
11839;SDS011;5979;50.800;4.904;2023-06-22T07:18:46;13.07;;;10.82;;
11839;SDS011;5979;50.800;4.904;2023-06-22T07:21:11;13.25;;;10.80;;
11839;SDS011;5979;50.800;4.904;2023-06-22T07:23:37;14.23;;;12.25;;
11839;SDS011;5979;50.800;4.904;2023-06-22T07:26:02;13.70;;;11.90;;
11839;SDS011;5979;50.800;4.904;2023-06-22T07:28:31;12.18;;;10.45;;
11839;SDS011;5979;50.800;4.904;2023-06-22T07:31:02;12.48;;;11.15;;
11839;SDS011;5979;50.800;4.904;2023-06-22T07:33:28;11.38;;;9.85;;
11839;SDS011;5979;50.800;4.904;2023-06-22T07:35:54;11.57;;;9.75;;
11839;SDS011;5979;50.800;4.904;2023-06-22T07:38:20;11.05;;;9.80;;
11839;SDS011;5979;50.800;4.904;2023-06-22T07:40:47;12.65;;;10.50;;
11839;SDS011;5979;50.800;4.904;2023-06-22T07:43:12;14.07;;;10.23;;
11839;SDS011;5979;50.800;4.904;2023-06-22T07:45:38;16.70;;;10.57;;
11839;SDS011;5979;50.800;4.904;2023-06-22T07:48:05;13.32;;;10.73;;
11839;SDS011;5979;50.800;4.904;2023-06-22T07:50:32;11.05;;;9.98;;
11839;SDS011;5979;50.800;4.904;2023-06-22T07:52:57;13.73;;;10.50;;
11839;SDS011;5979;50.800;4.904;2023-06-22T07:55:23;13.82;;;10.05;;
11839;SDS011;5979;50.800;4.904;2023-06-22T07:57:48;13.48;;;10.93;;
11839;SDS011;5979;50.800;4.904;2023-06-22T08:00:16;15.73;;;11.27;;
11839;SDS011;5979;50.800;4.904;2023-06-22T08:02:44;14.07;;;10.77;;
11839;SDS011;5979;50.800;4.904;2023-06-22T08:05:10;15.73;;;11.10;;
11839;SDS011;5979;50.800;4.904;2023-06-22T08:07:37;13.10;;;11.43;;
11839;SDS011;5979;50.800;4.904;2023-06-22T08:10:09;13.73;;;11.73;;
11839;SDS011;5979;50.800;4.904;2023-06-22T08:12:36;14.15;;;12.40;;
11839;SDS011;5979;50.800;4.904;2023-06-22T08:15:01;14.82;;;12.63;;
11839;SDS011;5979;50.800;4.904;2023-06-22T08:17:27;13.13;;;11.65;;
11839;SDS011;5979;50.800;4.904;2023-06-22T08:19:53;13.40;;;11.48;;
11839;SDS011;5979;50.800;4.904;2023-06-22T08:22:19;11.95;;;10.85;;
11839;SDS011;5979;50.800;4.904;2023-06-22T08:24:44;10.77;;;9.77;;
11839;SDS011;5979;50.800;4.904;2023-06-22T08:27:10;13.73;;;12.32;;
11839;SDS011;5979;50.800;4.904;2023-06-22T08:29:40;13.15;;;11.65;;
11839;SDS011;5979;50.800;4.904;2023-06-22T08:32:10;12.43;;;11.32;;
11839;SDS011;5979;50.800;4.904;2023-06-22T08:34:37;13.00;;;11.65;;
11839;SDS011;5979;50.800;4.904;2023-06-22T08:37:07;14.15;;;11.68;;
11839;SDS011;5979;50.800;4.904;2023-06-22T08:39:33;10.55;;;9.52;;
11839;SDS011;5979;50.800;4.904;2023-06-22T08:41:59;13.00;;;10.27;;
11839;SDS011;5979;50.800;4.904;2023-06-22T08:44:25;13.82;;;10.88;;
11839;SDS011;5979;50.800;4.904;2023-06-22T08:46:50;12.23;;;11.05;;
11839;SDS011;5979;50.800;4.904;2023-06-22T08:49:16;11.38;;;10.40;;
11839;SDS011;5979;50.800;4.904;2023-06-22T08:51:41;13.00;;;11.85;;
11839;SDS011;5979;50.800;4.904;2023-06-22T08:54:09;13.65;;;12.35;;
11839;SDS011;5979;50.800;4.904;2023-06-22T08:56:35;11.35;;;10.23;;
11839;SDS011;5979;50.800;4.904;2023-06-22T08:59:00;11.73;;;10.65;;
11839;SDS011;5979;50.800;4.904;2023-06-22T09:01:26;11.55;;;10.55;;
11839;SDS011;5979;50.800;4.904;2023-06-22T09:03:52;13.90;;;12.70;;
11839;SDS011;5979;50.800;4.904;2023-06-22T09:06:22;13.38;;;12.05;;
11839;SDS011;5979;50.800;4.904;2023-06-22T09:08:49;11.73;;;10.63;;
11839;SDS011;5979;50.800;4.904;2023-06-22T09:11:15;13.82;;;12.50;;
11839;SDS011;5979;50.800;4.904;2023-06-22T09:13:41;13.40;;;12.10;;
11839;SDS011;5979;50.800;4.904;2023-06-22T09:16:07;14.45;;;13.05;;
11839;SDS011;5979;50.800;4.904;2023-06-22T09:18:36;13.20;;;11.90;;
11839;SDS011;5979;50.800;4.904;2023-06-22T09:21:02;13.80;;;12.60;;
11839;SDS011;5979;50.800;4.904;2023-06-22T09:23:27;15.05;;;13.65;;
11839;SDS011;5979;50.800;4.904;2023-06-22T09:25:53;15.70;;;14.07;;
11839;SDS011;5979;50.800;4.904;2023-06-22T09:28:19;16.95;;;14.82;;
11839;SDS011;5979;50.800;4.904;2023-06-22T09:30:45;14.95;;;13.55;;
11839;SDS011;5979;50.800;4.904;2023-06-22T09:33:10;13.98;;;12.18;;
11839;SDS011;5979;50.800;4.904;2023-06-22T09:35:36;14.65;;;13.13;;
11839;SDS011;5979;50.800;4.904;2023-06-22T09:38:02;14.13;;;12.93;;
11839;SDS011;5979;50.800;4.904;2023-06-22T09:40:27;14.20;;;12.90;;
11839;SDS011;5979;50.800;4.904;2023-06-22T09:42:53;13.50;;;12.20;;
11839;SDS011;5979;50.800;4.904;2023-06-22T09:45:19;15.20;;;13.73;;
11839;SDS011;5979;50.800;4.904;2023-06-22T09:47:44;11.70;;;10.55;;
11839;SDS011;5979;50.800;4.904;2023-06-22T09:50:10;14.43;;;12.55;;
11839;SDS011;5979;50.800;4.904;2023-06-22T09:52:37;17.52;;;15.93;;
11839;SDS011;5979;50.800;4.904;2023-06-22T09:55:02;17.35;;;15.65;;
11839;SDS011;5979;50.800;4.904;2023-06-22T09:57:28;17.27;;;15.85;;
11839;SDS011;5979;50.800;4.904;2023-06-22T09:59:55;18.70;;;16.90;;
11839;SDS011;5979;50.800;4.904;2023-06-22T10:02:21;17.92;;;16.15;;
11839;SDS011;5979;50.800;4.904;2023-06-22T10:04:47;17.02;;;15.50;;
11839;SDS011;5979;50.800;4.904;2023-06-22T10:07:13;18.23;;;16.45;;
11839;SDS011;5979;50.800;4.904;2023-06-22T10:09:39;19.13;;;17.13;;
11839;SDS011;5979;50.800;4.904;2023-06-22T10:12:04;19.63;;;17.75;;
11839;SDS011;5979;50.800;4.904;2023-06-22T10:14:30;19.45;;;17.63;;
11839;SDS011;5979;50.800;4.904;2023-06-22T10:16:56;20.60;;;18.50;;
11839;SDS011;5979;50.800;4.904;2023-06-22T10:19:22;19.45;;;17.63;;
11839;SDS011;5979;50.800;4.904;2023-06-22T10:21:47;19.77;;;17.75;;
11839;SDS011;5979;50.800;4.904;2023-06-22T10:24:13;20.95;;;18.73;;
11839;SDS011;5979;50.800;4.904;2023-06-22T10:26:38;20.90;;;18.77;;
11839;SDS011;5979;50.800;4.904;2023-06-22T10:29:04;20.85;;;18.58;;
11839;SDS011;5979;50.800;4.904;2023-06-22T10:31:30;19.95;;;17.83;;
11839;SDS011;5979;50.800;4.904;2023-06-22T10:33:55;20.45;;;18.23;;
11839;SDS011;5979;50.800;4.904;2023-06-22T10:36:22;20.33;;;18.42;;
11839;SDS011;5979;50.800;4.904;2023-06-22T10:38:48;21.42;;;19.42;;
11839;SDS011;5979;50.800;4.904;2023-06-22T10:41:14;21.67;;;19.52;;
11839;SDS011;5979;50.800;4.904;2023-06-22T10:43:40;19.92;;;18.08;;
11839;SDS011;5979;50.800;4.904;2023-06-22T10:46:06;23.50;;;21.15;;
11839;SDS011;5979;50.800;4.904;2023-06-22T10:48:32;25.40;;;22.85;;
11839;SDS011;5979;50.800;4.904;2023-06-22T10:50:58;25.20;;;22.83;;
11839;SDS011;5979;50.800;4.904;2023-06-22T10:53:24;26.38;;;23.77;;
11839;SDS011;5979;50.800;4.904;2023-06-22T10:55:49;26.45;;;23.75;;
11839;SDS011;5979;50.800;4.904;2023-06-22T10:58:17;28.08;;;25.17;;
11839;SDS011;5979;50.800;4.904;2023-06-22T11:00:44;29.58;;;26.48;;
11839;SDS011;5979;50.800;4.904;2023-06-22T11:03:09;32.05;;;28.45;;
11839;SDS011;5979;50.800;4.904;2023-06-22T11:05:35;32.78;;;27.83;;
11839;SDS011;5979;50.800;4.904;2023-06-22T11:08:01;33.75;;;30.10;;
11839;SDS011;5979;50.800;4.904;2023-06-22T11:10:26;31.27;;;28.02;;
11839;SDS011;5979;50.800;4.904;2023-06-22T11:12:52;32.00;;;28.75;;
11839;SDS011;5979;50.800;4.904;2023-06-22T11:15:18;31.55;;;27.73;;
11839;SDS011;5979;50.800;4.904;2023-06-22T11:17:44;31.48;;;28.17;;
11839;SDS011;5979;50.800;4.904;2023-06-22T11:20:10;29.83;;;26.80;;
11839;SDS011;5979;50.800;4.904;2023-06-22T11:22:39;31.95;;;28.42;;
11839;SDS011;5979;50.800;4.904;2023-06-22T11:25:06;31.33;;;28.05;;
11839;SDS011;5979;50.800;4.904;2023-06-22T11:27:32;31.15;;;27.75;;
11839;SDS011;5979;50.800;4.904;2023-06-22T11:29:58;31.50;;;28.30;;
11839;SDS011;5979;50.800;4.904;2023-06-22T11:32:25;32.15;;;28.63;;
11839;SDS011;5979;50.800;4.904;2023-06-22T11:34:51;29.95;;;27.05;;
11839;SDS011;5979;50.800;4.904;2023-06-22T11:37:16;33.25;;;28.45;;
11839;SDS011;5979;50.800;4.904;2023-06-22T11:39:42;31.63;;;28.42;;
11839;SDS011;5979;50.800;4.904;2023-06-22T11:42:08;33.10;;;29.80;;
11839;SDS011;5979;50.800;4.904;2023-06-22T11:44:34;32.25;;;28.77;;
11839;SDS011;5979;50.800;4.904;2023-06-22T11:47:00;32.70;;;29.20;;
11839;SDS011;5979;50.800;4.904;2023-06-22T11:49:28;32.50;;;29.30;;
11839;SDS011;5979;50.800;4.904;2023-06-22T11:51:54;34.13;;;30.42;;
11839;SDS011;5979;50.800;4.904;2023-06-22T11:54:20;32.30;;;28.92;;
11839;SDS011;5979;50.800;4.904;2023-06-22T11:56:46;32.38;;;29.08;;
11839;SDS011;5979;50.800;4.904;2023-06-22T11:59:11;32.95;;;29.10;;
11839;SDS011;5979;50.800;4.904;2023-06-22T12:01:37;33.33;;;29.65;;
11839;SDS011;5979;50.800;4.904;2023-06-22T12:04:02;33.92;;;30.42;;
11839;SDS011;5979;50.800;4.904;2023-06-22T12:06:31;32.38;;;28.98;;
11839;SDS011;5979;50.800;4.904;2023-06-22T12:08:57;33.70;;;30.20;;
11839;SDS011;5979;50.800;4.904;2023-06-22T12:11:23;32.83;;;29.25;;
11839;SDS011;5979;50.800;4.904;2023-06-22T12:13:49;35.53;;;31.55;;
11839;SDS011;5979;50.800;4.904;2023-06-22T12:16:14;37.08;;;31.90;;
11839;SDS011;5979;50.800;4.904;2023-06-22T12:18:40;36.05;;;32.15;;
11839;SDS011;5979;50.800;4.904;2023-06-22T12:21:06;35.35;;;31.58;;
11839;SDS011;5979;50.800;4.904;2023-06-22T12:23:32;36.22;;;32.40;;
11839;SDS011;5979;50.800;4.904;2023-06-22T12:25:57;35.60;;;31.70;;
11839;SDS011;5979;50.800;4.904;2023-06-22T12:28:25;37.80;;;33.67;;
11839;SDS011;5979;50.800;4.904;2023-06-22T12:30:50;38.92;;;32.95;;
11839;SDS011;5979;50.800;4.904;2023-06-22T12:33:16;37.08;;;33.10;;
11839;SDS011;5979;50.800;4.904;2023-06-22T12:35:41;34.90;;;30.95;;
11839;SDS011;5979;50.800;4.904;2023-06-22T12:38:08;35.90;;;31.92;;
11839;SDS011;5979;50.800;4.904;2023-06-22T12:40:34;35.80;;;32.05;;
11839;SDS011;5979;50.800;4.904;2023-06-22T12:42:59;35.92;;;32.13;;
11839;SDS011;5979;50.800;4.904;2023-06-22T12:45:27;37.53;;;33.42;;
11839;SDS011;5979;50.800;4.904;2023-06-22T12:47:56;36.97;;;32.13;;
11839;SDS011;5979;50.800;4.904;2023-06-22T12:50:22;36.13;;;32.25;;
11839;SDS011;5979;50.800;4.904;2023-06-22T12:52:47;36.55;;;31.90;;
11839;SDS011;5979;50.800;4.904;2023-06-22T12:55:13;35.97;;;32.30;;
11839;SDS011;5979;50.800;4.904;2023-06-22T12:57:39;37.90;;;33.17;;
11839;SDS011;5979;50.800;4.904;2023-06-22T13:00:05;36.03;;;32.22;;
11839;SDS011;5979;50.800;4.904;2023-06-22T13:02:33;37.47;;;33.75;;
11839;SDS011;5979;50.800;4.904;2023-06-22T13:04:58;42.40;;;33.90;;
11839;SDS011;5979;50.800;4.904;2023-06-22T13:07:24;37.88;;;33.83;;
11839;SDS011;5979;50.800;4.904;2023-06-22T13:09:50;37.63;;;33.60;;
11839;SDS011;5979;50.800;4.904;2023-06-22T13:12:19;38.85;;;34.60;;
11839;SDS011;5979;50.800;4.904;2023-06-22T13:14:45;42.17;;;35.58;;
11839;SDS011;5979;50.800;4.904;2023-06-22T13:17:12;38.47;;;34.45;;
11839;SDS011;5979;50.800;4.904;2023-06-22T13:19:38;39.97;;;35.85;;
11839;SDS011;5979;50.800;4.904;2023-06-22T13:22:04;40.83;;;36.50;;
11839;SDS011;5979;50.800;4.904;2023-06-22T13:24:30;42.20;;;37.60;;
11839;SDS011;5979;50.800;4.904;2023-06-22T13:26:56;40.70;;;36.38;;
11839;SDS011;5979;50.800;4.904;2023-06-22T13:29:21;41.83;;;37.03;;
11839;SDS011;5979;50.800;4.904;2023-06-22T13:31:47;43.63;;;38.80;;
11839;SDS011;5979;50.800;4.904;2023-06-22T13:34:13;44.30;;;37.17;;
11839;SDS011;5979;50.800;4.904;2023-06-22T13:36:39;40.58;;;36.33;;
11839;SDS011;5979;50.800;4.904;2023-06-22T13:39:04;42.63;;;38.03;;
11839;SDS011;5979;50.800;4.904;2023-06-22T13:41:30;43.80;;;38.78;;
11839;SDS011;5979;50.800;4.904;2023-06-22T13:43:56;45.10;;;38.38;;
11839;SDS011;5979;50.800;4.904;2023-06-22T13:46:21;44.05;;;37.65;;
11839;SDS011;5979;50.800;4.904;2023-06-22T13:48:47;43.38;;;36.58;;
11839;SDS011;5979;50.800;4.904;2023-06-22T13:51:12;39.13;;;34.95;;
11839;SDS011;5979;50.800;4.904;2023-06-22T13:53:38;38.75;;;34.65;;
11839;SDS011;5979;50.800;4.904;2023-06-22T13:56:04;39.15;;;34.95;;
11839;SDS011;5979;50.800;4.904;2023-06-22T13:58:29;38.83;;;34.78;;
11839;SDS011;5979;50.800;4.904;2023-06-22T14:00:55;38.90;;;34.78;;
11839;SDS011;5979;50.800;4.904;2023-06-22T14:03:21;38.38;;;34.30;;
11839;SDS011;5979;50.800;4.904;2023-06-22T14:05:46;40.05;;;34.88;;
11839;SDS011;5979;50.800;4.904;2023-06-22T14:08:13;38.67;;;34.78;;
11839;SDS011;5979;50.800;4.904;2023-06-22T14:10:39;37.92;;;33.83;;
11839;SDS011;5979;50.800;4.904;2023-06-22T14:13:05;39.60;;;35.35;;
11839;SDS011;5979;50.800;4.904;2023-06-22T14:15:31;38.22;;;34.40;;
11839;SDS011;5979;50.800;4.904;2023-06-22T14:17:57;40.70;;;36.38;;
11839;SDS011;5979;50.800;4.904;2023-06-22T14:20:23;41.63;;;35.70;;
11839;SDS011;5979;50.800;4.904;2023-06-22T14:22:48;39.97;;;35.72;;
11839;SDS011;5979;50.800;4.904;2023-06-22T14:25:14;38.08;;;34.35;;
11839;SDS011;5979;50.800;4.904;2023-06-22T14:27:39;39.28;;;35.00;;
11839;SDS011;5979;50.800;4.904;2023-06-22T14:30:06;38.17;;;34.20;;
11839;SDS011;5979;50.800;4.904;2023-06-22T14:32:32;39.80;;;35.65;;
11839;SDS011;5979;50.800;4.904;2023-06-22T14:34:58;37.95;;;34.05;;
11839;SDS011;5979;50.800;4.904;2023-06-22T14:37:24;37.75;;;33.75;;
11839;SDS011;5979;50.800;4.904;2023-06-22T14:39:49;36.28;;;32.53;;
11839;SDS011;5979;50.800;4.904;2023-06-22T14:42:15;36.88;;;33.03;;
11839;SDS011;5979;50.800;4.904;2023-06-22T14:44:41;35.28;;;31.67;;
11839;SDS011;5979;50.800;4.904;2023-06-22T14:47:06;35.85;;;31.05;;